x

Bodega Bay - 48nm Nnw Of San Francisco, Ca (46013) Wave Buoy

7:50pm - Sat 22nd Nov 2014 All times are PST. -8 hours from GMT.

  • Sig Wave height 10.5ft
  • Peak Period 13s
  • Average Period 8s
  • Wind
    18mph, 20mph gusts
  • Sea Temp 59°f
  • Air Temp 59°f
  • Sea Pressure 1023.7mb
  • Bodega Bay - 48nm Nnw Of San Francisco, Ca
  • Bodega Bay - 48nm Nnw Of San Francisco, Ca

More Historic Weather Station data

Upgrade to MSW Pro to gain access to the past 30 days of data for over 8000 Wavebouys and Weather Stations around the globe.

Join Pro

Comparision Forecast

View Surf forecast
   
Sat 11/22 7:50pm 10.5ft 13s 8s 18 20 mph 1023.7mb 59f 59f
6:50pm 11ft 11s 8s 22 27 mph 1022.7mb 59f 60f
5:50pm 10ft 11s 7s 25 29 mph 1022.1mb 59f 60f
4:50pm 9.5ft 11s 7s 25 29 mph 1021.3mb 59f 60f
3:50pm 10ft 11s 7s 25 31 mph 1021.1mb 59f 60f
2:50pm 10ft 12s 7s 25 29 mph 1020.7mb 59f 61f
1:50pm 9ft 12s 7s 27 31 mph 1020mb 60f 61f
12:50pm 8ft 12s 7s 22 25 mph 1019.6mb 60f 61f
11:50am 9ft 12s 7s 25 29 mph 1019.6mb 60f 62f
10:50am 8.5ft 12s 7s 18 22 mph 1019.3mb 60f 62f
9:50am 8.5ft 12s 7s 18 20 mph 1019.1mb 61f 61f
8:50am 9ft 11s 7s 16 20 mph 1018.3mb 61f 61f
7:50am 8.5ft 11s 7s 20 22 mph 1017mb 61f 62f
6:50am 8ft 10s 7s 20 25 mph 1016.3mb 61f 62f
5:50am 8.5ft 11s 7s 20 25 mph 1016.3mb 61f 62f
4:50am 8.5ft 11s 7s 20 25 mph 1016.3mb 61f 62f
3:50am 7.5ft 12s 7s 18 20 mph 1016.6mb 61f 62f
2:50am 7ft 11s 7s 16 20 mph 1017.1mb 61f 63f
1:50am 6.5ft 12s 7s 16 18 mph 1017.2mb 60f 62f
12:50am 7ft 12s 7s 13 18 mph 1017.7mb 60f 61f
Fri 11/21 11:50pm 6ft 11s 7s 18 20 mph 1018mb 60f 60f
10:50pm 7ft 13s 7s 18 20 mph 1018.4mb 60f 59f
9:50pm 7ft 12s 8s 16 20 mph 1018.3mb 61f 60f
8:50pm 8ft 13s 8s 16 18 mph 1018.7mb 61f 59f
7:50pm 7.5ft 12s 8s 13 18 mph 1019mb 61f 59f
6:50pm 7ft 13s 8s 13 18 mph 1018.9mb 60f 59f
5:50pm 7.5ft 12s 8s 13 18 mph 1018.9mb 60f 59f
4:50pm 7.5ft 13s 9s 13 16 mph 1018.5mb 60f 58f
3:50pm  -   -   -  11 16 mph 1018.7mb 60f 58f
2:50pm 7.5ft 13s 9s 11 13 mph 1018.6mb 60f 57f
1:50pm 8ft 10s 9s 9 11 mph 1018.9mb 60f 57f
12:50pm 7.5ft 12s 9s 11 13 mph 1018.3mb 60f 56f
11:50am 7.5ft 14s 8s 11 13 mph 1019mb 60f 54f
10:50am 7.5ft 10s 8s 9 13 mph 1019.5mb 60f 54f
9:50am 8.5ft 14s 8s 13 18 mph 1018.9mb 60f 54f
8:50am 8.5ft 10s 8s 11 16 mph 1019.1mb 60f 54f
7:50am 8ft 10s 8s 11 13 mph 1018.7mb 60f 54f
6:50am 7.5ft 10s 8s 11 16 mph 1018mb 60f 53f
5:50am 7ft 14s 8s 11 13 mph 1017.7mb 60f 53f
4:50am 6.5ft 14s 8s 13 16 mph 1017.4mb 60f 54f
3:50am 7ft 14s 8s 11 13 mph 1017.6mb 60f 54f
2:50am 7ft 11s 8s 11 13 mph 1017.4mb 60f 55f
1:50am 6.5ft 15s 8s 13 16 mph 1017mb 60f 55f
12:50am 7ft 10s 8s 13 16 mph 1017.2mb 60f 56f
Thu 11/20 11:50pm 7ft 15s 8s 11 13 mph 1017.2mb 60f 56f
10:50pm 6.5ft 9s 7s 9 13 mph 1017.2mb 60f 56f
9:50pm 7.5ft 10s 7s 11 13 mph 1016.8mb 60f 56f
8:50pm 7.5ft 11s 7s 13 18 mph 1016.4mb 61f 56f
7:50pm 7.5ft 10s 7s 13 16 mph 1015.8mb 61f 56f
6:50pm 7.5ft 10s 7s 11 16 mph 1015.3mb 61f 56f
5:50pm 8ft 10s 7s 2 7 mph 1015.5mb 61f 59f
4:50pm 7.5ft 11s 7s 11 16 mph 1015.3mb 61f 58f
3:50pm 7.5ft 11s 6s 16 20 mph 1014.9mb 61f 57f
2:50pm 7.5ft 11s 7s 22 29 mph 1014.6mb 61f 57f
1:50pm 7ft 11s 8s 20 25 mph 1014.9mb 61f 58f
12:50pm 7ft 11s 8s 16 20 mph 1015.3mb 61f 57f
11:50am 7.5ft 11s 8s 16 18 mph 1016.6mb 61f 56f
10:50am 8ft 11s 8s 11 16 mph 1017.2mb 60f 56f
9:50am 8.5ft 11s 8s 4 7 mph 1018.4mb 60f 56f
8:50am 9ft 11s 8s 7 11 mph 1018.5mb 60f 57f
7:50am 9ft 11s 8s 11 13 mph 1018mb 60f 56f
6:50am 10ft 11s 8s 13 16 mph 1017.4mb 61f 56f
5:50am 9ft 11s 8s 16 20 mph 1017.5mb 61f 55f
4:50am 8.5ft 11s 8s 13 18 mph 1018.3mb 61f 55f
3:50am 9ft 11s 8s 13 18 mph 1018.7mb 61f 55f
2:50am 9ft 12s 8s 13 16 mph 1019.1mb 61f 55f
1:50am 8ft 13s 8s 9 13 mph 1019.9mb 61f 55f
12:50am 8ft 12s 8s 11 16 mph 1019.7mb 61f 55f
Wed 11/19 11:50pm 7.5ft 12s 8s 9 13 mph 1020.2mb 61f 56f
10:50pm 8ft 13s 8s 9 11 mph 1019.9mb 61f 58f
9:50pm 8ft 14s 8s 7 9 mph 1020.1mb 61f 58f
8:50pm 8ft 14s 8s 9 11 mph 1019.9mb 61f 58f
7:50pm 8.5ft 13s 8s 9 11 mph 1019.1mb 61f 58f
6:50pm 8ft 12s 8s 4 7 mph 1018.9mb 61f 59f
5:50pm 8ft 14s 8s 11 13 mph 1018.1mb 61f 61f
4:50pm 8.5ft 14s 7s 16 18 mph 1017.5mb 61f 60f
3:50pm 8ft 14s 7s 9 11 mph 1017mb 61f 60f
2:50pm 8ft 11s 7s 9 11 mph 1016.2mb 61f 59f
1:50pm 8ft 13s 7s 16 22 mph 1015.3mb 61f 61f
12:50pm 9ft 11s 7s 13 16 mph 1014.8mb 61f 62f
11:50am 10ft 12s 7s 13 18 mph 1014.8mb 61f 62f
10:50am 9ft 12s 6s 20 31 mph 1014.6mb 61f 59f
9:50am 9ft 12s 6s 31 36 mph 1013.7mb 61f 58f
8:50am 10ft 14s 6s 29 34 mph 1013.6mb 61f 57f
7:50am 9.5ft 13s 6s 29 36 mph 1013.7mb 61f 56f
6:50am 9ft 11s 6s 25 29 mph 1013.5mb 61f 55f
5:50am 8.5ft 11s 6s 29 34 mph 1013.4mb 61f 55f
4:50am 8ft 11s 6s 22 29 mph 1014mb 61f 57f